Flight Number: EUR1419 Duration: 5:00
Departure: Cairo Int'll Airport (HECA) at 08:00 Distance: 1891 Nm
Arrival: Gatwick Airport (EGKK) at 13:00 Equipment: B757-200

Weather Information
Cairo Airport, Egypt (HECA) 30-08N 031-24E 74M May 24, 2018 - 05:30 PM EDT / 2018.05.24 2130 UTC
Wind: from the ENE (070 degrees) at 6 MPH (5 KT):0
Visibility: greater than 7 mile(s):0 Temperature: 86 F (30 C) Dew Point: 53 F (12 C) Relative Humidity: 33% Pressure (altimeter): 29.85 in. Hg (1011 hPa)
ob: HECA 242130Z 07005KT CAVOK 30/12 Q1011 NOSIG cycle: 21
Sunrise: 02:58 Sunset: 16:43 (UTC)

London / Gatwick Airport, United Kingdom (EGKK) 51-09N 000-11W 0M May 24, 2018 - 04:50 PM EDT / 2018.05.24 2050 UTC
Wind: Variable at 5 MPH (4 KT):0
Visibility: 1 mile(s):0
Sky conditions: mostly clear Weather: mist Temperature: 59 F (15 C) Dew Point: 57 F (14 C) Relative Humidity: 93% Pressure (altimeter): 30.06 in. Hg (1018 hPa)
ob: EGKK 242050Z VRB04KT 3000 BR FEW004 15/14 Q1018 cycle: 21
Sunrise: 04:02 Sunset: 19:52 (UTC)

TAF:2018/05/24 20:44 TAF AMD EGKK 242035Z 2420/2524 02008KT 7000 BKN045 TEMPO 2420/2524 2000 RADZ BKN014 BECMG 2500/2503 BKN008 PROB30 2500/2508 3000 BR BKN004 BECMG 2508/2511 9999 SCT025

Previous Pireps for this route
Date Aircraft Flight time Fuel used Landing rate On time
2012-08-18B7775.00820000No
2012-08-27B77704.4361634-679No
2012-09-08B77704.3656427-466No
2012-09-10B7774.30800000No
2013-10-04A32105.1418463-423Charter
2013-12-05B73705.2440782-364Charter
2014-01-20B757-20004.5732595-334No
2014-02-16B77704.4754139-282Yes
2014-04-13B757-20005.5239730-288No
2014-05-22B757-20004.4132526-130Yes
2014-07-19B757-20004.4143942-782Yes
2014-07-21B757-20004.2929935-165Yes
2014-08-07B77704.3452656-152Yes
2014-08-21B757-20004.5135056-241No
2014-09-19B757-20004.4131107-191Yes
2014-10-06B757-20004.2929747-430Yes
2014-10-14B7774.15882090Yes
2014-12-19B757-20004.5331409-185Yes
2015-02-18B757-2005.0242164-610No
2015-04-19B757-20004.5130532-161Yes
2015-05-04B757-20005.0442854-6Charter
2015-12-29B757-20004.3928400-188Yes
2016-02-13B77704.4062643-263Yes
2016-07-26B7774.252156500Yes
2016-08-29B77704.3971901-413Charter
2017-06-04B74700Charter
2017-06-04B74700Charter
2017-06-07B74704.16990760Charter
2017-06-11B74704.2010051150Charter
(pireps marked green are flown by you)

Route map